Time;durP1;ratioP1;P1;durP2;ratioP2;P2;SDS_P1;SDS_P2;PMS_P1;PMS_P2;Temp;Humidity;BMP_temperature;BMP_pressure;BME280_temperature;BME280_humidity;BME280_pressure;Samples;Min_cycle;Max_cycle;Signal;HPM_P1;HPM_P2
2021/12/24 00:01:12;;;;;;;27.87;16.83;;;;;;;2.43;69.91;98741.09;4972927;28;97500;-87
2021/12/24 00:03:38;;;;;;;24.02;16.70;;;;;;;2.43;69.88;98741.94;4984630;28;101104;-86
2021/12/24 00:06:05;;;;;;;26.97;16.37;;;;;;;2.51;70.03;98738.31;4952696;28;101148;-86
2021/12/24 00:08:31;;;;;;;24.43;16.40;;;;;;;2.51;70.09;98733.13;4975091;28;97449;-87
2021/12/24 00:10:59;;;;;;;27.57;16.53;;;;;;;2.57;69.99;98723.44;4976666;28;96933;-85
2021/12/24 00:13:28;;;;;;;22.97;15.43;;;;;;;2.57;69.83;98732.97;4976867;28;98442;-87
2021/12/24 00:16:05;;;;;;;23.17;16.57;;;;;;;2.41;70.06;98704.84;4975442;28;101468;-86
2021/12/24 00:37:05;;;;;;;20.27;14.20;;;;;;;2.67;70.53;98704.16;4976630;28;100966;-86
2021/12/24 00:39:33;;;;;;;21.00;13.70;;;;;;;2.59;70.17;98689.72;4955254;28;96968;-84
2021/12/24 00:41:58;;;;;;;20.30;13.73;;;;;;;2.58;70.29;98668.13;4972996;28;97249;-86
2021/12/24 00:44:25;;;;;;;20.60;13.80;;;;;;;2.58;70.55;98675.91;4968079;28;100977;-85
2021/12/24 00:46:50;;;;;;;21.77;13.97;;;;;;;2.59;71.06;98687.13;4967920;28;101225;-85
2021/12/24 00:49:17;;;;;;;18.90;12.40;;;;;;;2.57;70.46;98669.03;4946961;28;96671;-86
2021/12/24 00:51:55;;;;;;;18.07;12.73;;;;;;;2.58;70.24;98650.00;4980376;28;97839;-87
2021/12/24 00:57:06;;;;;;;21.93;14.13;;;;;;;2.76;70.76;98676.28;4977038;28;101133;-87
2021/12/24 00:59:31;;;;;;;20.17;13.67;;;;;;;2.54;70.13;98627.69;4949565;28;96846;-87
2021/12/24 01:02:03;;;;;;;22.17;14.37;;;;;;;2.73;70.50;98666.84;4956427;28;96806;-87
2021/12/24 01:04:28;;;;;;;18.63;12.38;;;;;;;2.74;70.47;98655.63;4976033;28;101614;-87
2021/12/24 01:06:54;;;;;;;17.97;12.60;;;;;;;2.78;70.23;98653.78;4974489;28;101252;-86
2021/12/24 01:09:20;;;;;;;21.63;12.63;;;;;;;2.81;70.54;98662.31;4968062;28;97022;-85
2021/12/24 01:11:46;;;;;;;18.37;12.67;;;;;;;2.70;70.45;98644.47;4973526;28;97442;-86
2021/12/24 01:14:11;;;;;;;16.60;11.97;;;;;;;2.80;70.13;98652.84;4974872;28;101631;-85
2021/12/24 01:16:44;;;;;;;18.47;12.97;;;;;;;2.87;70.04;98656.94;4958734;28;100950;-88
2021/12/24 01:19:19;;;;;;;18.40;11.20;;;;;;;2.80;70.34;98642.47;4976421;28;97526;-86
2021/12/24 01:24:34;;;;;;;16.53;11.30;;;;;;;2.78;70.12;98631.31;4974571;28;100497;-84
2021/12/24 01:29:58;;;;;;;16.13;11.50;;;;;;;2.88;70.68;98642.22;4989485;28;96866;-87
2021/12/24 01:38:10;;;;;;;15.73;9.83;;;;;;;2.95;70.12;98628.22;4975170;28;100511;-86
2021/12/24 01:40:52;;;;;;;13.83;10.53;;;;;;;2.97;70.13;98622.97;4967980;28;97920;-86
2021/12/24 01:43:18;;;;;;;;;;;;;;;3.01;70.38;98622.84;4977588;28;97197;-86
2021/12/24 01:45:49;;;;;;;17.60;10.60;;;;;;;3.02;69.93;98610.72;4971336;28;100951;-85
2021/12/24 01:48:15;;;;;;;15.67;9.97;;;;;;;3.03;70.57;98612.44;4955135;28;101799;-87
2021/12/24 01:50:42;;;;;;;15.77;10.27;;;;;;;3.06;70.10;98601.97;4968182;28;97310;-86
2021/12/24 01:53:08;;;;;;;14.67;9.33;;;;;;;3.09;70.36;98596.69;4967734;28;97232;-86
2021/12/24 01:55:37;;;;;;;15.07;10.40;;;;;;;3.05;70.59;98595.06;4991068;28;102139;-86
2021/12/24 01:58:04;;;;;;;16.67;10.03;;;;;;;2.94;70.49;98578.13;4974261;28;101474;-86
2021/12/24 02:00:33;;;;;;;17.83;10.37;;;;;;;3.06;70.95;98601.97;4958424;28;97035;-85
2021/12/24 02:02:59;;;;;;;16.23;10.83;;;;;;;3.02;70.82;98588.22;4974815;28;96986;-86
2021/12/24 02:05:25;;;;;;;14.60;9.00;;;;;;;3.00;70.96;98581.44;4974920;28;101040;-85
2021/12/24 02:07:51;;;;;;;17.27;11.23;;;;;;;2.84;70.84;98555.13;4972036;28;100488;-85
2021/12/24 02:10:18;;;;;;;24.37;12.20;;;;;;;2.97;71.23;98568.53;4961694;28;97335;-87
2021/12/24 02:12:45;;;;;;;16.63;10.57;;;;;;;2.89;71.26;98545.47;4970369;28;97078;-87
2021/12/24 02:15:22;;;;;;;19.67;11.20;;;;;;;3.02;71.41;98577.88;4957776;28;99741;-87
2021/12/24 02:28:38;;;;;;;16.37;11.03;;;;;;;3.18;71.30;98573.06;4974536;28;101638;-85
2021/12/24 02:31:11;;;;;;;18.33;11.23;;;;;;;3.16;71.49;98573.09;4972217;28;96718;-85
2021/12/24 02:33:38;;;;;;;21.80;11.97;;;;;;;3.16;71.41;98570.50;4974698;28;96675;-85
2021/12/24 02:36:04;;;;;;;17.37;10.50;;;;;;;3.17;71.45;98571.34;4952787;28;101172;-87
2021/12/24 02:38:30;;;;;;;17.10;11.13;;;;;;;3.15;71.33;98571.41;4949523;28;101218;-87
2021/12/24 02:40:55;;;;;;;18.87;11.67;;;;;;;3.21;71.52;98557.41;4969965;28;97026;-85
2021/12/24 02:43:23;;;;;;;15.63;10.10;;;;;;;3.21;71.38;98560.00;4966016;28;96693;-85
2021/12/24 02:45:51;;;;;;;18.27;10.97;;;;;;;3.16;72.02;98554.94;4969097;28;101657;-85
2021/12/24 02:54:00;;;;;;;16.23;10.43;;;;;;;3.25;71.76;98566.78;4977121;28;96871;-85
2021/12/24 02:56:32;;;;;;;18.10;10.83;;;;;;;3.18;71.70;98537.59;4960789;28;101872;-86
2021/12/24 02:59:00;;;;;;;16.55;10.20;;;;;;;3.26;71.56;98541.69;4961274;28;101212;-85
2021/12/24 03:01:29;;;;;;;17.50;10.03;;;;;;;3.35;71.38;98551.78;4968981;28;97475;-85
2021/12/24 03:03:56;;;;;;;14.27;9.03;;;;;;;3.21;71.77;98546.19;4973107;28;97179;-85
2021/12/24 03:06:30;;;;;;;16.67;9.47;;;;;;;3.26;72.08;98550.34;4956419;28;101786;-85
2021/12/24 03:08:57;;;;;;;15.77;9.57;;;;;;;3.27;72.09;98556.34;4959220;28;101260;-85
2021/12/24 03:11:23;;;;;;;15.30;8.80;;;;;;;3.30;72.00;98558.84;4989777;28;97672;-85
2021/12/24 03:13:50;;;;;;;11.10;8.50;;;;;;;3.34;72.01;98550.91;4962578;28;97154;-84
2021/12/24 03:16:15;;;;;;;13.57;9.27;;;;;;;3.33;71.75;98550.97;4948307;28;100534;-85
2021/12/24 03:18:43;;;;;;;13.57;9.17;;;;;;;3.35;71.92;98547.44;4956201;28;101602;-85
2021/12/24 03:21:15;;;;;;;11.63;9.23;;;;;;;3.24;72.38;98528.78;4989190;28;97210;-85
2021/12/24 03:23:46;;;;;;;14.97;9.73;;;;;;;3.41;72.19;98546.38;4992423;28;96796;-86
2021/12/24 03:26:14;;;;;;;14.87;9.53;;;;;;;3.33;71.96;98512.06;4970256;28;101517;-86
2021/12/24 03:28:41;;;;;;;15.03;9.47;;;;;;;3.40;72.22;98534.28;4961613;28;101395;-85
2021/12/24 03:31:06;;;;;;;16.80;9.30;;;;;;;3.41;72.76;98533.41;4950089;28;98087;-85
2021/12/24 03:33:34;;;;;;;13.53;9.03;;;;;;;3.30;72.35;98510.41;4970421;28;99272;-85
2021/12/24 03:36:06;;;;;;;16.03;9.63;;;;;;;3.46;72.47;98521.16;4962995;28;99814;-84
2021/12/24 03:38:37;;;;;;;14.00;9.43;;;;;;;3.46;72.58;98526.34;4973951;28;98521;-85
2021/12/24 03:41:04;;;;;;;15.10;9.83;;;;;;;3.52;72.50;98520.06;4956113;28;97199;-85
2021/12/24 03:43:31;;;;;;;12.23;8.80;;;;;;;3.49;72.61;98514.97;4974315;28;97153;-85
2021/12/24 03:46:04;;;;;;;12.37;9.27;;;;;;;3.43;72.36;98504.81;4956364;28;100788;-85
2021/12/24 03:56:34;;;;;;;12.57;8.70;;;;;;;3.51;73.13;98511.44;4976799;28;101931;-85
2021/12/24 03:59:00;;;;;;;16.80;10.23;;;;;;;3.43;72.90;98500.47;4953401;28;101522;-85
2021/12/24 04:02:04;;;;;;;13.80;9.80;;;;;;;3.58;73.36;98517.28;4958538;28;97495;-86
2021/12/24 04:04:35;;;;;;;15.55;9.88;;;;;;;3.42;73.29;98491.00;4965050;28;97011;-85
2021/12/24 04:07:31;;;;;;;17.60;10.27;;;;;;;3.38;73.21;98486.84;4952193;28;97743;-86
2021/12/24 04:13:15;;;;;;;11.47;8.67;;;;;;;3.62;73.43;98511.06;4987735;28;96861;-85
2021/12/24 04:15:41;;;;;;;15.57;10.00;;;;;;;3.47;73.65;98488.25;4989411;28;97094;-85
2021/12/24 04:18:14;;;;;;;15.30;9.47;;;;;;;3.55;73.76;98515.63;4971783;28;101788;-85
2021/12/24 04:26:10;;;;;;;13.80;8.50;;;;;;;3.60;73.80;98499.91;4962940;28;97529;-85
2021/12/24 04:28:35;;;;;;;16.73;9.37;;;;;;;3.65;73.88;98500.59;4962071;28;101421;-85
2021/12/24 04:31:02;;;;;;;11.27;8.20;;;;;;;3.68;73.82;98505.66;4968999;28;101024;-85
2021/12/24 04:33:34;;;;;;;14.37;8.83;;;;;;;3.67;73.64;98495.38;4960360;28;96712;-85
2021/12/24 04:36:14;;;;;;;14.00;9.33;;;;;;;3.74;73.64;98495.06;4970238;28;96867;-85
2021/12/24 04:39:06;;;;;;;14.17;9.07;;;;;;;3.75;73.95;98493.31;4974787;28;101242;-85
2021/12/24 05:03:12;;;;;;;12.03;7.97;;;;;;;3.82;74.38;98493.06;4964821;28;101508;-85
2021/12/24 05:08:29;;;;;;;14.20;8.07;;;;;;;3.81;74.43;98509.53;4992465;28;96728;-85
2021/12/24 05:10:51;;;;;;;11.53;7.77;;;;;;;3.96;74.01;98507.31;4959661;28;101419;-86
2021/12/24 05:13:20;;;;;;;13.67;8.60;;;;;;;3.89;74.34;98514.44;4968577;28;101129;-85
2021/12/24 05:16:17;;;;;;;14.30;8.63;;;;;;;3.77;74.43;98488.94;4962943;28;97352;-85
2021/12/24 05:22:25;;;;;;;13.77;8.23;;;;;;;3.81;74.62;98488.78;4939343;28;97811;-86
2021/12/24 05:24:51;;;;;;;10.77;7.00;;;;;;;3.92;74.33;98498.75;4975852;28;101228;-86
2021/12/24 05:27:16;;;;;;;12.37;7.33;;;;;;;3.91;74.90;98519.59;4975460;28;97091;-86
2021/12/24 05:29:42;;;;;;;9.37;6.40;;;;;;;3.88;74.58;98478.16;4990450;28;96816;-85
2021/12/24 05:32:08;;;;;;;12.30;6.90;;;;;;;3.88;74.64;98471.22;4973478;28;100734;-85
2021/12/24 05:34:33;;;;;;;10.17;6.47;;;;;;;3.96;74.93;98497.75;4975126;28;97855;-86
2021/12/24 05:36:59;;;;;;;9.50;6.77;;;;;;;3.92;75.03;98490.97;4973881;28;97326;-86
2021/12/24 05:39:25;;;;;;;11.40;6.97;;;;;;;3.91;74.86;98496.22;4975842;28;97406;-86
2021/12/24 05:41:54;;;;;;;8.97;5.90;;;;;;;3.90;74.97;98490.19;4975493;28;100796;-85
2021/12/24 05:44:22;;;;;;;10.47;7.37;;;;;;;3.94;74.78;98490.94;4952680;28;101451;-84
2021/12/24 05:47:07;;;;;;;8.07;6.17;;;;;;;3.92;75.41;98496.16;4970788;28;96886;-85
2021/12/24 05:49:40;;;;;;;10.23;6.65;;;;;;;3.88;75.15;98479.00;4956108;28;97154;-86
2021/12/24 05:52:24;;;;;;;9.50;6.20;;;;;;;3.93;74.87;98474.50;4967173;28;97429;-85
2021/12/24 05:55:00;;;;;;;13.47;6.87;;;;;;;3.96;74.88;98461.41;4960503;28;100524;-85
2021/12/24 05:57:29;;;;;;;13.17;6.70;;;;;;;4.00;75.33;98475.13;4968037;28;96945;-85
2021/12/24 05:59:55;;;;;;;7.77;5.37;;;;;;;4.08;75.20;98479.13;4989819;28;96959;-85
2021/12/24 06:02:20;;;;;;;10.77;5.63;;;;;;;3.98;75.24;98461.34;4972979;28;101543;-85
2021/12/24 06:04:46;;;;;;;8.50;5.67;;;;;;;3.91;75.22;98457.28;4974566;28;97844;-86
2021/12/24 06:07:12;;;;;;;9.07;6.37;;;;;;;4.05;75.41;98471.47;4973865;28;97355;-85
2021/12/24 06:09:37;;;;;;;11.63;7.27;;;;;;;4.06;75.10;98461.91;4976204;28;97953;-84
2021/12/24 06:12:03;;;;;;;10.83;7.33;;;;;;;4.06;75.13;98465.34;4974238;28;100323;-84
2021/12/24 06:14:29;;;;;;;14.03;8.80;;;;;;;4.13;75.13;98475.50;4970303;28;100775;-85
2021/12/24 06:17:02;;;;;;;17.80;10.90;;;;;;;4.17;75.11;98469.31;4972402;28;97227;-85
2021/12/24 06:19:28;;;;;;;15.27;8.90;;;;;;;4.14;74.74;98446.06;4975459;28;96751;-85
2021/12/24 06:21:58;;;;;;;26.23;15.03;;;;;;;4.17;75.13;98462.38;4990547;28;101393;-85
2021/12/24 06:24:23;;;;;;;15.83;11.10;;;;;;;4.16;74.95;98468.47;4973979;28;101451;-85
2021/12/24 06:26:49;;;;;;;10.60;6.43;;;;;;;4.18;74.99;98456.25;4956776;28;96666;-85
2021/12/24 06:29:15;;;;;;;10.33;5.87;;;;;;;4.23;74.99;98471.69;4957304;28;97304;-85
2021/12/24 06:31:41;;;;;;;13.00;6.43;;;;;;;4.26;75.15;98482.78;4965786;28;101638;-85
2021/12/24 06:34:07;;;;;;;9.80;5.87;;;;;;;4.32;74.84;98479.13;4970984;28;97596;-85
2021/12/24 06:36:40;;;;;;;10.30;5.83;;;;;;;4.25;75.06;98467.28;4989379;28;97206;-85
2021/12/24 06:39:07;;;;;;;7.93;5.40;;;;;;;4.30;75.26;98470.53;4986775;28;97202;-84
2021/12/24 06:41:33;;;;;;;9.27;5.30;;;;;;;4.44;74.65;98473.44;4973295;28;98065;-85
2021/12/24 06:43:59;;;;;;;11.37;6.63;;;;;;;4.39;75.41;98474.53;4974002;28;97995;-86
2021/12/24 06:46:24;;;;;;;13.63;8.40;;;;;;;4.30;75.40;98465.34;4972152;28;97291;-86
2021/12/24 06:48:56;;;;;;;17.53;8.97;;;;;;;4.23;75.35;98463.88;4964707;28;99909;-86
2021/12/24 06:51:25;;;;;;;27.10;12.90;;;;;;;4.42;75.38;98474.41;4973422;28;97991;-86
2021/12/24 06:53:51;;;;;;;12.37;7.90;;;;;;;4.37;75.20;98471.16;4955680;28;101499;-85
2021/12/24 06:56:19;;;;;;;10.67;7.53;;;;;;;4.29;75.12;98461.06;4962101;28;97364;-85
2021/12/24 06:58:44;;;;;;;15.60;8.73;;;;;;;4.42;75.47;98477.00;4971031;28;97034;-85
2021/12/24 07:01:11;;;;;;;13.37;7.47;;;;;;;4.43;75.44;98466.56;4970485;28;101506;-85
2021/12/24 07:03:38;;;;;;;10.33;7.13;;;;;;;4.48;75.39;98475.03;4970549;28;101310;-84
2021/12/24 07:06:04;;;;;;;12.70;7.70;;;;;;;4.42;75.59;98472.69;4947941;28;97808;-84
2021/12/24 07:08:30;;;;;;;14.03;8.37;;;;;;;4.41;75.63;98457.97;4958988;28;97018;-85
2021/12/24 07:10:56;;;;;;;17.27;7.07;;;;;;;4.48;76.00;98479.38;4990918;28;98484;-84
2021/12/24 07:13:22;;;;;;;14.63;8.97;;;;;;;4.39;75.93;98471.94;4991121;28;97471;-85
2021/12/24 07:15:47;;;;;;;29.67;15.97;;;;;;;4.47;76.14;98482.88;4971751;28;97273;-90
2021/12/24 07:18:13;;;;;;;29.77;15.63;;;;;;;4.48;75.71;98480.25;4976797;28;96899;-88
2021/12/24 07:20:38;;;;;;;22.13;11.60;;;;;;;4.41;75.89;98455.38;4979774;28;98380;-90
2021/12/24 07:23:04;;;;;;;20.80;11.60;;;;;;;4.49;75.87;98475.88;4941887;28;100390;-88
2021/12/24 07:25:30;;;;;;;19.43;11.30;;;;;;;4.57;76.12;98491.16;4973160;28;97062;-87
2021/12/24 07:27:56;;;;;;;11.53;8.13;;;;;;;4.63;75.59;98480.56;4989769;28;97432;-89
2021/12/24 07:30:22;;;;;;;9.47;6.07;;;;;;;4.59;75.59;98474.59;4974585;28;101191;-88
2021/12/24 07:32:47;;;;;;;9.43;6.20;;;;;;;4.63;75.58;98472.75;4958912;28;98198;-89
2021/12/24 07:35:13;;;;;;;10.97;5.77;;;;;;;4.58;75.63;98467.72;4986104;28;96725;-87
2021/12/24 07:37:41;;;;;;;9.67;6.33;;;;;;;4.52;75.97;98460.16;4955702;28;97426;-89
2021/12/24 07:40:07;;;;;;;16.17;7.50;;;;;;;4.56;76.06;98456.53;4973213;28;101586;-88
2021/12/24 07:42:33;;;;;;;11.93;6.60;;;;;;;4.59;76.24;98456.41;4957551;28;101241;-88
2021/12/24 07:44:59;;;;;;;13.10;8.00;;;;;;;4.50;75.68;98426.44;4974898;28;97084;-87
2021/12/24 07:47:32;;;;;;;12.27;7.87;;;;;;;4.59;75.66;98459.00;4979450;28;96732;-87
2021/12/24 07:50:04;;;;;;;12.67;8.67;;;;;;;4.60;75.27;98446.88;4972887;28;101366;-89
2021/12/24 07:52:30;;;;;;;12.57;7.97;;;;;;;4.65;75.79;98461.38;4971082;28;99534;-88
2021/12/24 07:54:56;;;;;;;11.07;7.23;;;;;;;4.62;75.83;98466.69;4963001;28;97127;-88
2021/12/24 07:57:23;;;;;;;22.83;9.57;;;;;;;4.53;75.89;98444.50;4967654;28;96872;-88
2021/12/24 07:59:49;;;;;;;17.63;9.70;;;;;;;4.61;75.93;98459.81;4952839;28;100917;-88
2021/12/24 08:02:17;;;;;;;18.53;9.90;;;;;;;4.68;75.65;98466.47;4968811;28;97808;-87
2021/12/24 08:04:44;;;;;;;16.40;8.97;;;;;;;4.71;75.58;98455.06;4958710;28;96675;-87
2021/12/24 08:07:10;;;;;;;17.13;8.47;;;;;;;4.73;75.71;98448.91;4968087;28;96720;-88
2021/12/24 08:09:37;;;;;;;22.17;9.53;;;;;;;4.73;75.54;98446.31;4983944;28;98296;-88
2021/12/24 08:12:05;;;;;;;16.57;9.50;;;;;;;4.68;75.36;98435.28;4964942;28;101020;-88
2021/12/24 08:14:30;;;;;;;20.27;8.77;;;;;;;4.69;76.13;98443.91;4966093;28;97777;-86
2021/12/24 08:16:56;;;;;;;19.20;8.27;;;;;;;4.68;75.98;98437.00;4956116;28;96770;-89
2021/12/24 08:19:21;;;;;;;25.13;15.33;;;;;;;4.62;75.53;98409.50;4962101;28;101088;-89
2021/12/24 08:21:47;;;;;;;23.03;12.23;;;;;;;4.83;75.59;98432.94;4959313;28;100478;-90
2021/12/24 08:24:13;;;;;;;17.80;11.33;;;;;;;4.76;75.78;98411.56;4974751;28;96610;-77
2021/12/24 08:26:39;;;;;;;19.13;11.63;;;;;;;4.71;75.76;98403.09;4975215;28;96789;-76
2021/12/24 08:29:05;;;;;;;24.10;11.97;;;;;;;4.73;75.98;98404.72;4983670;28;98534;-85
2021/12/24 08:31:31;;;;;;;33.83;18.53;;;;;;;4.80;76.00;98414.88;4964405;28;100400;-89
2021/12/24 08:33:57;;;;;;;41.33;19.17;;;;;;;4.76;75.63;98407.19;4996444;28;97264;-88
2021/12/24 08:36:23;;;;;;;43.63;22.50;;;;;;;4.85;75.73;98408.56;4978524;28;97198;-88
2021/12/24 08:38:48;;;;;;;61.07;29.17;;;;;;;4.99;75.67;98414.06;4995726;28;97990;-90
2021/12/24 08:41:14;;;;;;;127.63;60.90;;;;;;;5.09;75.54;98411.06;4964405;28;98092;-88
2021/12/24 08:43:40;;;;;;;128.13;56.00;;;;;;;5.05;75.49;98399.94;4990246;28;98440;-88
2021/12/24 08:46:06;;;;;;;90.93;39.23;;;;;;;5.07;75.38;98405.94;4969802;28;97984;-83
2021/12/24 08:48:31;;;;;;;98.20;39.87;;;;;;;5.04;75.77;98418.25;4973201;28;98333;-89
2021/12/24 08:50:57;;;;;;;75.03;32.43;;;;;;;4.94;75.66;98417.75;4969146;28;100205;-88
2021/12/24 08:53:23;;;;;;;55.20;24.47;;;;;;;4.93;76.23;98409.09;4991782;28;96844;-88
2021/12/24 08:55:49;;;;;;;34.60;16.70;;;;;;;4.85;76.59;98418.13;4982169;28;97204;-88
2021/12/24 08:58:15;;;;;;;35.97;16.77;;;;;;;4.92;76.22;98417.84;4958401;28;98018;-89
2021/12/24 09:00:41;;;;;;;29.97;17.10;;;;;;;4.92;76.09;98409.19;4961188;28;100606;-88
2021/12/24 09:03:07;;;;;;;32.33;15.40;;;;;;;4.92;75.98;98412.63;4991030;28;96925;-83
2021/12/24 09:05:33;;;;;;;27.17;14.87;;;;;;;4.95;75.95;98415.09;4969593;28;97445;-85
2021/12/24 09:07:59;;;;;;;25.13;13.53;;;;;;;4.95;75.58;98409.06;4969703;28;101043;-88
2021/12/24 09:10:24;;;;;;;25.37;13.63;;;;;;;4.93;76.46;98411.72;4991945;28;97945;-89
2021/12/24 09:12:50;;;;;;;23.70;11.80;;;;;;;5.01;75.91;98406.19;4954612;28;98837;-90
2021/12/24 09:15:17;;;;;;;22.07;12.33;;;;;;;4.98;75.81;98406.34;4986571;28;97003;-91
2021/12/24 09:17:45;;;;;;;22.30;12.67;;;;;;;4.96;75.80;98395.13;4957431;28;99939;-92
2021/12/24 09:20:19;;;;;;;57.83;24.70;;;;;;;4.91;75.61;98384.06;4972520;28;99935;-90
2021/12/24 09:22:46;;;;;;;51.33;24.27;;;;;;;5.06;75.67;98398.19;4991179;28;96850;-91
2021/12/24 09:25:12;;;;;;;64.37;25.37;;;;;;;5.08;75.67;98402.41;4986264;28;96708;-91
2021/12/24 09:27:37;;;;;;;38.43;19.47;;;;;;;5.04;75.93;98393.06;4961709;28;101375;-89
2021/12/24 09:30:04;;;;;;;32.20;16.83;;;;;;;5.07;75.82;98405.09;4947082;28;101205;-87
